createdAt,value
2022-12-24T00:00:50.740Z,50.71
2022-12-24T00:01:50.641Z,50.41
2022-12-24T00:02:50.828Z,50.78
2022-12-24T00:03:50.881Z,52.69
2022-12-24T00:04:54.230Z,51.78
2022-12-24T00:05:51.637Z,51.28
2022-12-24T00:06:50.607Z,53.89
2022-12-24T00:07:50.611Z,51.48
2022-12-24T00:08:50.571Z,51.70
2022-12-24T00:09:50.709Z,51.64
2022-12-24T00:10:50.601Z,49.62
2022-12-24T00:11:50.600Z,50.04
2022-12-24T00:12:50.608Z,49.56
2022-12-24T00:13:50.658Z,48.85
2022-12-24T00:14:50.547Z,50.02
2022-12-24T00:15:50.555Z,48.25
2022-12-24T00:16:50.597Z,49.33
2022-12-24T00:17:50.529Z,47.89
2022-12-24T00:18:50.541Z,48.82
2022-12-24T00:19:50.543Z,48.78
2022-12-24T00:20:50.507Z,48.88
2022-12-24T00:21:50.507Z,48.98
2022-12-24T00:22:50.477Z,48.64
2022-12-24T00:23:50.488Z,48.76
2022-12-24T00:24:50.493Z,49.94
2022-12-24T00:25:50.473Z,48.57
2022-12-24T00:26:50.470Z,47.32
2022-12-24T00:27:50.476Z,46.54
2022-12-24T00:28:50.447Z,48.51
2022-12-24T00:29:50.448Z,50.28
2022-12-24T00:30:50.478Z,54.48
2022-12-24T00:31:50.447Z,47.68
2022-12-24T00:32:50.448Z,47.04
2022-12-24T00:33:50.418Z,49.07
2022-12-24T00:34:50.410Z,57.86
2022-12-24T00:35:50.441Z,57.79
2022-12-24T00:36:50.373Z,48.81
2022-12-24T00:37:50.401Z,48.31
2022-12-24T00:38:50.406Z,47.17
2022-12-24T00:39:50.377Z,47.18
2022-12-24T00:40:50.353Z,47.30
2022-12-24T00:41:50.374Z,52.81
2022-12-24T00:42:50.450Z,60.74
2022-12-24T00:43:50.348Z,49.45
2022-12-24T00:44:50.322Z,46.98
2022-12-24T00:45:50.320Z,48.33
2022-12-24T00:46:50.352Z,46.85
2022-12-24T00:47:50.321Z,45.83
2022-12-24T00:48:50.301Z,47.16
2022-12-24T00:49:50.341Z,46.18
2022-12-24T00:50:50.357Z,46.34
2022-12-24T00:51:50.293Z,47.20
2022-12-24T00:52:50.309Z,47.38
2022-12-24T00:53:50.278Z,46.23
2022-12-24T00:54:50.268Z,46.84
2022-12-24T00:55:50.262Z,45.89
2022-12-24T00:56:50.226Z,45.72
2022-12-24T00:57:50.288Z,45.95
2022-12-24T00:58:50.242Z,46.15
2022-12-24T00:59:50.208Z,48.23
2022-12-24T01:00:50.250Z,47.59
2022-12-24T01:01:50.324Z,47.30
2022-12-24T01:02:50.528Z,48.94
2022-12-24T01:03:50.310Z,50.04
2022-12-24T01:04:50.172Z,48.96
2022-12-24T01:05:50.195Z,47.45
2022-12-24T01:06:50.171Z,46.64
2022-12-24T01:07:50.201Z,46.27
2022-12-24T01:08:50.244Z,47.29
2022-12-24T01:09:50.157Z,46.74
2022-12-24T01:10:50.160Z,45.53
2022-12-24T01:11:50.200Z,47.54
2022-12-24T01:12:50.149Z,47.01
2022-12-24T01:13:50.220Z,47.59
2022-12-24T01:14:50.132Z,45.98
2022-12-24T01:15:50.200Z,45.86
2022-12-24T01:16:50.129Z,48.01
2022-12-24T01:17:50.391Z,47.44
2022-12-24T01:18:50.133Z,47.24
2022-12-24T01:19:50.256Z,46.21
2022-12-24T01:20:50.146Z,46.28
2022-12-24T01:21:50.089Z,47.27
2022-12-24T01:22:50.074Z,46.83
2022-12-24T01:23:50.099Z,46.55
2022-12-24T01:24:50.161Z,47.17
2022-12-24T01:25:50.123Z,45.92
2022-12-24T01:26:50.054Z,46.71
2022-12-24T01:27:50.065Z,46.72
2022-12-24T01:28:50.024Z,46.71
2022-12-24T01:29:50.034Z,47.06
2022-12-24T01:30:50.109Z,45.98
2022-12-24T01:31:50.061Z,45.69
2022-12-24T01:32:49.992Z,45.30
2022-12-24T01:33:50.041Z,45.96
2022-12-24T01:34:49.984Z,45.27
2022-12-24T01:35:50.014Z,44.57
2022-12-24T01:36:49.960Z,44.92
2022-12-24T01:37:49.977Z,45.39
2022-12-24T01:38:49.942Z,45.80
2022-12-24T01:39:50.068Z,46.01
2022-12-24T01:40:49.965Z,45.43
2022-12-24T01:41:49.954Z,45.62
2022-12-24T01:42:49.922Z,44.99
2022-12-24T01:43:49.950Z,45.40
2022-12-24T01:44:50.094Z,45.64
2022-12-24T01:45:49.896Z,47.49
2022-12-24T01:46:50.001Z,46.83
2022-12-24T01:47:49.919Z,45.70
2022-12-24T01:48:49.943Z,46.13
2022-12-24T01:49:49.933Z,45.24
2022-12-24T01:50:49.919Z,45.16
2022-12-24T01:51:49.940Z,44.95
2022-12-24T01:52:49.872Z,45.41
2022-12-24T01:53:49.857Z,45.38
2022-12-24T01:54:49.847Z,47.43
2022-12-24T01:55:49.884Z,47.79
2022-12-24T01:56:49.830Z,46.54
2022-12-24T01:57:49.836Z,44.58
2022-12-24T01:58:49.843Z,44.95
2022-12-24T01:59:49.801Z,44.83
2022-12-24T02:00:49.822Z,45.76
2022-12-24T02:01:49.885Z,43.82
2022-12-24T02:02:49.990Z,44.28
2022-12-24T02:03:49.858Z,43.93
2022-12-24T02:04:49.815Z,44.68
2022-12-24T02:05:49.854Z,44.76
2022-12-24T02:06:49.759Z,45.98
2022-12-24T02:07:49.769Z,44.92
2022-12-24T02:08:49.744Z,44.69
2022-12-24T02:09:50.057Z,45.66
2022-12-24T02:10:49.720Z,45.03
2022-12-24T02:11:49.738Z,45.63
2022-12-24T02:12:49.747Z,46.56
2022-12-24T02:13:49.753Z,46.06
2022-12-24T02:14:49.720Z,45.18
2022-12-24T02:15:49.769Z,47.67
2022-12-24T02:16:49.676Z,46.49
2022-12-24T02:17:50.084Z,46.44
2022-12-24T02:18:49.703Z,44.59
2022-12-24T02:19:49.700Z,44.30
2022-12-24T02:20:49.709Z,45.23
2022-12-24T02:21:49.678Z,45.56
2022-12-24T02:22:49.663Z,47.77
2022-12-24T02:23:49.675Z,46.37
2022-12-24T02:24:49.676Z,46.09
2022-12-24T02:25:49.774Z,45.72
2022-12-24T02:26:56.684Z,45.51
2022-12-24T02:27:49.624Z,45.21
2022-12-24T02:28:49.593Z,47.52
2022-12-24T02:29:49.614Z,45.57
2022-12-24T02:30:49.686Z,45.24
2022-12-24T02:31:49.689Z,46.53
2022-12-24T02:32:49.609Z,47.13
2022-12-24T02:33:49.588Z,45.54
2022-12-24T02:34:49.555Z,45.67
2022-12-24T02:35:49.609Z,45.88
2022-12-24T02:36:49.603Z,46.07
2022-12-24T02:37:49.553Z,45.45
2022-12-24T02:38:49.645Z,44.84
2022-12-24T02:39:49.527Z,44.75
2022-12-24T02:40:49.634Z,44.48
2022-12-24T02:41:49.532Z,45.32
2022-12-24T02:42:49.542Z,45.92
2022-12-24T02:43:49.514Z,45.76
2022-12-24T02:44:49.510Z,44.74
2022-12-24T02:45:53.736Z,44.53
2022-12-24T02:46:50.693Z,44.16
2022-12-24T02:47:49.495Z,44.60
2022-12-24T02:48:49.489Z,44.19
2022-12-24T02:49:49.534Z,44.48
2022-12-24T02:50:49.472Z,44.42
2022-12-24T02:51:49.485Z,44.98
2022-12-24T02:52:49.465Z,44.95
2022-12-24T02:53:49.448Z,45.14
2022-12-24T02:54:49.436Z,44.56
2022-12-24T02:55:49.600Z,45.17
2022-12-24T02:56:49.424Z,46.25
2022-12-24T02:57:49.406Z,45.90
2022-12-24T02:58:49.683Z,44.74
2022-12-24T02:59:49.383Z,45.21
2022-12-24T03:00:49.461Z,44.68
2022-12-24T03:01:49.514Z,45.45
2022-12-24T03:02:49.429Z,45.20
2022-12-24T03:03:49.364Z,51.57
2022-12-24T03:04:49.396Z,60.41
2022-12-24T03:05:49.377Z,47.88
2022-12-24T03:06:49.363Z,44.66
2022-12-24T03:07:49.363Z,44.28
2022-12-24T03:08:49.342Z,45.88
2022-12-24T03:09:49.339Z,45.66
2022-12-24T03:10:49.517Z,44.96
2022-12-24T03:11:49.321Z,45.08
2022-12-24T03:12:49.313Z,44.25
2022-12-24T03:13:49.313Z,44.24
2022-12-24T03:14:49.354Z,45.01
2022-12-24T03:15:49.477Z,44.65
2022-12-24T03:16:49.352Z,45.97
2022-12-24T03:17:49.385Z,45.51
2022-12-24T03:18:49.269Z,44.68
2022-12-24T03:19:49.271Z,44.60
2022-12-24T03:20:49.281Z,43.93
2022-12-24T03:21:49.263Z,44.20
2022-12-24T03:22:49.262Z,44.39
2022-12-24T03:23:49.228Z,44.37
2022-12-24T03:24:49.225Z,44.93
2022-12-24T03:25:49.222Z,44.77
2022-12-24T03:26:49.206Z,44.67
2022-12-24T03:27:49.239Z,43.85
2022-12-24T03:28:49.228Z,43.99
2022-12-24T03:29:49.214Z,44.71
2022-12-24T03:30:49.219Z,43.72
2022-12-24T03:31:49.240Z,44.00
2022-12-24T03:32:49.172Z,44.11
2022-12-24T03:33:49.200Z,44.07
2022-12-24T03:34:49.164Z,43.95
2022-12-24T03:35:49.170Z,44.61
2022-12-24T03:36:49.158Z,43.98
2022-12-24T03:37:49.182Z,44.06
2022-12-24T03:38:49.153Z,44.53
2022-12-24T03:39:49.123Z,50.16
2022-12-24T03:40:49.125Z,50.90
2022-12-24T03:41:49.119Z,45.16
2022-12-24T03:42:49.105Z,44.77
2022-12-24T03:43:49.152Z,45.24
2022-12-24T03:44:49.107Z,45.73
2022-12-24T03:45:49.162Z,43.84
2022-12-24T03:46:49.127Z,44.78
2022-12-24T03:47:49.116Z,44.71
2022-12-24T03:48:49.066Z,44.95
2022-12-24T03:49:49.075Z,45.74
2022-12-24T03:50:49.058Z,44.29
2022-12-24T03:51:49.041Z,44.89
2022-12-24T03:52:49.055Z,44.96
2022-12-24T03:53:49.141Z,44.89
2022-12-24T03:54:49.025Z,45.25
2022-12-24T03:55:49.027Z,48.17
2022-12-24T03:56:49.012Z,53.72
2022-12-24T03:57:49.030Z,45.10
2022-12-24T03:58:48.999Z,47.37
2022-12-24T03:59:48.987Z,45.61
2022-12-24T04:00:49.006Z,46.21
2022-12-24T04:01:49.263Z,46.47
2022-12-24T04:02:49.067Z,45.78
2022-12-24T04:03:48.966Z,44.90
2022-12-24T04:04:48.974Z,45.24
2022-12-24T04:05:48.959Z,45.25
2022-12-24T04:06:48.940Z,45.14
2022-12-24T04:07:48.958Z,45.91
2022-12-24T04:08:48.936Z,47.79
2022-12-24T04:09:48.949Z,46.39
2022-12-24T04:10:48.925Z,47.47
2022-12-24T04:11:48.911Z,49.12
2022-12-24T04:12:48.930Z,47.64
2022-12-24T04:13:48.919Z,49.47
2022-12-24T04:14:48.902Z,49.25
2022-12-24T04:15:48.896Z,50.24
2022-12-24T04:16:49.008Z,48.17
2022-12-24T04:17:48.873Z,48.47
2022-12-24T04:18:48.906Z,47.22
2022-12-24T04:19:48.932Z,48.87
2022-12-24T04:20:48.915Z,48.14
2022-12-24T04:21:49.388Z,49.73
2022-12-24T04:22:48.880Z,49.23
2022-12-24T04:23:48.851Z,47.06
2022-12-24T04:24:49.096Z,49.13
2022-12-24T04:25:48.875Z,46.97
2022-12-24T04:26:48.812Z,48.48
2022-12-24T04:27:48.832Z,48.98
2022-12-24T04:28:48.803Z,48.07
2022-12-24T04:29:48.826Z,49.30
2022-12-24T04:30:48.799Z,54.15
2022-12-24T04:31:48.852Z,48.97
2022-12-24T04:32:48.798Z,47.46
2022-12-24T04:33:48.769Z,48.26
2022-12-24T04:34:48.779Z,48.88
2022-12-24T04:35:48.778Z,51.27
2022-12-24T04:36:48.770Z,49.86
2022-12-24T04:37:48.767Z,49.14
2022-12-24T04:38:48.816Z,47.42
2022-12-24T04:39:48.730Z,48.48
2022-12-24T04:40:48.756Z,47.76
2022-12-24T04:41:48.713Z,47.73
2022-12-24T04:42:48.722Z,55.50
2022-12-24T04:43:48.724Z,57.78
2022-12-24T04:44:48.713Z,50.25
2022-12-24T04:45:48.761Z,47.56
2022-12-24T04:46:48.689Z,46.49
2022-12-24T04:47:48.696Z,46.71
2022-12-24T04:48:48.664Z,47.71
2022-12-24T04:49:48.684Z,45.42
2022-12-24T04:50:48.682Z,48.18
2022-12-24T04:51:48.646Z,47.45
2022-12-24T04:52:48.676Z,47.57
2022-12-24T04:53:48.649Z,46.86
2022-12-24T04:54:48.653Z,47.13
2022-12-24T04:55:48.658Z,46.51
2022-12-24T04:56:48.606Z,47.31
2022-12-24T04:57:52.884Z,47.32
2022-12-24T04:58:48.610Z,46.34
2022-12-24T04:59:48.640Z,46.95
2022-12-24T05:00:48.898Z,46.99
2022-12-24T05:01:48.781Z,46.46
2022-12-24T05:02:48.819Z,46.83
2022-12-24T05:03:48.598Z,48.98
2022-12-24T05:04:48.598Z,48.43
2022-12-24T05:05:48.558Z,47.28
2022-12-24T05:06:48.592Z,47.80
2022-12-24T05:07:48.560Z,47.11
2022-12-24T05:08:48.544Z,46.83
2022-12-24T05:09:48.898Z,46.40
2022-12-24T05:10:48.546Z,47.84
2022-12-24T05:11:48.522Z,47.58
2022-12-24T05:12:48.513Z,49.12
2022-12-24T05:13:48.509Z,47.41
2022-12-24T05:14:48.511Z,49.61
2022-12-24T05:15:48.508Z,48.22
2022-12-24T05:16:48.531Z,47.77
2022-12-24T05:17:48.490Z,48.91
2022-12-24T05:18:48.484Z,48.56
2022-12-24T05:19:48.464Z,48.47
2022-12-24T05:20:48.474Z,47.12
2022-12-24T05:21:48.465Z,49.90
2022-12-24T05:22:48.483Z,50.67
2022-12-24T05:23:48.457Z,49.82
2022-12-24T05:24:48.442Z,49.46
2022-12-24T05:25:48.435Z,51.44
2022-12-24T05:26:48.423Z,50.43
2022-12-24T05:27:51.411Z,49.74
2022-12-24T05:28:48.421Z,50.03
2022-12-24T05:29:48.407Z,49.84
2022-12-24T05:30:48.409Z,49.65
2022-12-24T05:31:48.385Z,48.68
2022-12-24T05:32:48.607Z,48.11
2022-12-24T05:33:48.383Z,48.60
2022-12-24T05:34:48.389Z,49.38
2022-12-24T05:35:48.350Z,54.49
2022-12-24T05:36:48.381Z,50.59
2022-12-24T05:37:48.365Z,49.39
2022-12-24T05:38:48.392Z,48.65
2022-12-24T05:39:48.352Z,47.71
2022-12-24T05:40:48.337Z,48.13
2022-12-24T05:41:48.338Z,49.38
2022-12-24T05:42:48.336Z,50.72
2022-12-24T05:43:48.309Z,48.32
2022-12-24T05:44:48.327Z,49.14
2022-12-24T05:45:48.328Z,49.37
2022-12-24T05:46:48.378Z,47.45
2022-12-24T05:47:48.617Z,50.50
2022-12-24T05:48:48.282Z,49.16
2022-12-24T05:49:48.314Z,49.28
2022-12-24T05:50:48.282Z,48.40
2022-12-24T05:51:48.288Z,49.09
2022-12-24T05:52:48.274Z,47.98
2022-12-24T05:53:48.249Z,49.11
2022-12-24T05:54:48.309Z,49.80
2022-12-24T05:55:48.227Z,49.97
2022-12-24T05:56:48.243Z,50.40
2022-12-24T05:57:48.268Z,49.74
2022-12-24T05:58:48.230Z,51.11
2022-12-24T05:59:48.229Z,48.52
2022-12-24T06:00:48.223Z,47.79
2022-12-24T06:01:48.397Z,50.29
2022-12-24T06:02:48.294Z,51.01
2022-12-24T06:03:48.290Z,49.50
2022-12-24T06:04:48.276Z,48.97
2022-12-24T06:05:48.408Z,50.46
2022-12-24T06:06:48.177Z,49.73
2022-12-24T06:07:48.228Z,50.99
2022-12-24T06:08:48.162Z,50.22
2022-12-24T06:09:48.147Z,51.10
2022-12-24T06:10:48.185Z,50.60
2022-12-24T06:11:48.189Z,50.61
2022-12-24T06:12:48.145Z,53.93
2022-12-24T06:13:48.126Z,50.58
2022-12-24T06:14:48.150Z,49.64
2022-12-24T06:15:48.246Z,48.23
2022-12-24T06:16:48.117Z,49.93
2022-12-24T06:17:48.100Z,50.61
2022-12-24T06:18:48.138Z,55.84
2022-12-24T06:19:48.101Z,50.68
2022-12-24T06:20:48.073Z,51.40
2022-12-24T06:21:48.076Z,49.85
2022-12-24T06:22:48.079Z,51.40
2022-12-24T06:23:48.060Z,50.01
2022-12-24T06:24:48.142Z,49.75
2022-12-24T06:25:48.038Z,52.17
2022-12-24T06:26:48.421Z,51.17
2022-12-24T06:27:48.022Z,51.78
2022-12-24T06:28:48.111Z,50.44
2022-12-24T06:29:48.017Z,53.03
2022-12-24T06:30:48.115Z,50.29
2022-12-24T06:31:48.178Z,50.98
2022-12-24T06:32:47.990Z,49.21
2022-12-24T06:33:48.023Z,49.19
2022-12-24T06:34:48.011Z,51.49
2022-12-24T06:35:48.008Z,53.07
2022-12-24T06:36:48.039Z,62.73
2022-12-24T06:37:48.184Z,50.34
2022-12-24T06:38:48.037Z,50.19
2022-12-24T06:39:48.022Z,54.23
2022-12-24T06:40:47.959Z,52.09
2022-12-24T06:41:47.975Z,50.06
2022-12-24T06:42:47.959Z,50.25
2022-12-24T06:43:47.961Z,51.27
2022-12-24T06:44:47.952Z,52.46
2022-12-24T06:45:47.990Z,51.80
2022-12-24T06:46:48.080Z,50.64
2022-12-24T06:47:47.904Z,49.50
2022-12-24T06:48:47.901Z,50.01
2022-12-24T06:49:47.946Z,51.06
2022-12-24T06:50:47.925Z,50.01
2022-12-24T06:51:47.887Z,50.08
2022-12-24T06:52:47.876Z,50.40
2022-12-24T06:53:47.896Z,51.98
2022-12-24T06:54:47.918Z,51.76
2022-12-24T06:55:47.875Z,51.51
2022-12-24T06:56:47.846Z,51.23
2022-12-24T06:57:47.860Z,49.82
2022-12-24T06:58:47.887Z,50.73
2022-12-24T06:59:47.861Z,50.38
2022-12-24T07:00:47.831Z,52.62
2022-12-24T07:01:48.132Z,50.75
2022-12-24T07:02:47.889Z,52.61
2022-12-24T07:03:47.974Z,51.31
2022-12-24T07:04:47.790Z,50.08
2022-12-24T07:05:48.087Z,51.53
2022-12-24T07:06:47.824Z,52.23
2022-12-24T07:07:47.778Z,51.71
2022-12-24T07:08:47.793Z,50.03
2022-12-24T07:09:47.789Z,52.38
2022-12-24T07:10:53.860Z,52.40
2022-12-24T07:11:51.617Z,51.34
2022-12-24T07:12:47.761Z,51.59
2022-12-24T07:13:47.760Z,51.53
2022-12-24T07:14:47.773Z,51.83
2022-12-24T07:15:47.878Z,51.32
2022-12-24T07:16:48.395Z,52.21
2022-12-24T07:17:47.807Z,52.46
2022-12-24T07:18:47.714Z,52.45
2022-12-24T07:19:47.705Z,52.72
2022-12-24T07:20:47.771Z,52.35
2022-12-24T07:21:47.700Z,51.60
2022-12-24T07:22:47.689Z,54.17
2022-12-24T07:23:47.692Z,53.12
2022-12-24T07:24:47.667Z,52.24
2022-12-24T07:25:47.669Z,53.10
2022-12-24T07:26:47.663Z,51.59
2022-12-24T07:27:47.664Z,53.05
2022-12-24T07:28:47.650Z,52.48
2022-12-24T07:29:47.649Z,54.31
2022-12-24T07:30:47.731Z,52.57
2022-12-24T07:31:47.685Z,52.18
2022-12-24T07:32:47.632Z,51.75
2022-12-24T07:33:47.629Z,52.60
2022-12-24T07:34:47.627Z,52.25
2022-12-24T07:35:52.299Z,51.58
2022-12-24T07:36:48.745Z,51.51
2022-12-24T07:37:47.619Z,51.74
2022-12-24T07:38:47.588Z,52.15
2022-12-24T07:39:47.651Z,51.60
2022-12-24T07:40:47.594Z,51.86
2022-12-24T07:41:47.614Z,55.56
2022-12-24T07:42:47.584Z,55.53
2022-12-24T07:43:47.567Z,53.90
2022-12-24T07:44:47.563Z,52.56
2022-12-24T07:45:47.569Z,52.03
2022-12-24T07:46:47.614Z,51.89
2022-12-24T07:47:47.529Z,55.45
2022-12-24T07:48:47.586Z,64.38
2022-12-24T07:49:47.547Z,52.91
2022-12-24T07:50:47.497Z,50.97
2022-12-24T07:51:47.517Z,52.89
2022-12-24T07:52:47.509Z,52.92
2022-12-24T07:53:47.507Z,51.82
2022-12-24T07:54:47.485Z,52.96
2022-12-24T07:55:47.480Z,51.87
2022-12-24T07:56:47.492Z,53.17
2022-12-24T07:57:47.507Z,51.50
2022-12-24T07:58:47.443Z,51.87
2022-12-24T07:59:47.454Z,52.06
2022-12-24T08:00:47.464Z,53.00
2022-12-24T08:01:47.670Z,52.13
2022-12-24T08:02:47.566Z,55.27
2022-12-24T08:03:47.738Z,51.98
2022-12-24T08:04:47.403Z,53.84
2022-12-24T08:05:47.408Z,52.00
2022-12-24T08:06:47.418Z,52.86
2022-12-24T08:07:47.401Z,53.20
2022-12-24T08:08:47.531Z,52.08
2022-12-24T08:09:47.398Z,52.76
2022-12-24T08:10:47.368Z,52.77
2022-12-24T08:11:51.934Z,53.27
2022-12-24T08:12:48.380Z,52.07
2022-12-24T08:13:47.388Z,53.96
2022-12-24T08:14:47.381Z,54.83
2022-12-24T08:15:47.426Z,58.06
2022-12-24T08:16:47.534Z,53.79
2022-12-24T08:17:47.342Z,53.90
2022-12-24T08:18:47.386Z,51.73
2022-12-24T08:19:47.331Z,52.69
2022-12-24T08:20:47.341Z,51.53
2022-12-24T08:21:47.356Z,54.43
2022-12-24T08:22:47.283Z,53.74
2022-12-24T08:23:47.300Z,53.23
2022-12-24T08:24:47.285Z,53.38
2022-12-24T08:25:47.284Z,55.15
2022-12-24T08:26:47.285Z,53.29
2022-12-24T08:27:54.291Z,53.16
2022-12-24T08:28:47.253Z,52.95
2022-12-24T08:29:47.296Z,54.53
2022-12-24T08:30:47.252Z,52.68
2022-12-24T08:31:47.316Z,52.47
2022-12-24T08:32:47.252Z,50.77
2022-12-24T08:33:47.228Z,53.16
2022-12-24T08:34:47.257Z,54.69
2022-12-24T08:35:47.219Z,59.28
2022-12-24T08:36:47.237Z,53.85
2022-12-24T08:37:47.208Z,52.46
2022-12-24T08:38:47.238Z,51.57
2022-12-24T08:39:47.170Z,52.84
2022-12-24T08:40:47.358Z,53.05
2022-12-24T08:41:47.205Z,55.15
2022-12-24T08:42:47.261Z,54.48
2022-12-24T08:43:47.182Z,51.86
2022-12-24T08:44:47.172Z,52.19
2022-12-24T08:45:47.207Z,54.41
2022-12-24T08:46:47.231Z,52.01
2022-12-24T08:47:47.135Z,51.78
2022-12-24T08:48:47.191Z,52.32
2022-12-24T08:49:47.147Z,53.70
2022-12-24T08:50:47.160Z,53.40
2022-12-24T08:51:47.168Z,54.05
2022-12-24T08:52:47.118Z,53.68
2022-12-24T08:53:47.113Z,51.84
2022-12-24T08:54:47.131Z,52.36
2022-12-24T08:55:53.637Z,52.45
2022-12-24T08:56:47.092Z,53.95
2022-12-24T08:57:47.066Z,53.23
2022-12-24T08:58:47.082Z,52.16
2022-12-24T08:59:47.074Z,53.74
2022-12-24T09:00:47.183Z,55.59
2022-12-24T09:01:47.245Z,54.46
2022-12-24T09:02:47.481Z,55.72
2022-12-24T09:03:47.060Z,54.90
2022-12-24T09:04:47.041Z,55.46
2022-12-24T09:05:47.020Z,55.80
2022-12-24T09:06:47.052Z,53.21
2022-12-24T09:07:47.013Z,53.49
2022-12-24T09:08:47.026Z,54.47
2022-12-24T09:09:46.986Z,54.15
2022-12-24T09:10:46.996Z,54.11
2022-12-24T09:11:46.981Z,55.35
2022-12-24T09:12:46.952Z,54.66
2022-12-24T09:13:46.962Z,54.27
2022-12-24T09:14:46.971Z,54.51
2022-12-24T09:15:46.965Z,55.49
2022-12-24T09:16:47.061Z,54.06
2022-12-24T09:17:46.935Z,54.49
2022-12-24T09:18:46.940Z,53.49
2022-12-24T09:19:46.929Z,55.91
2022-12-24T09:20:47.355Z,55.75
2022-12-24T09:21:46.890Z,55.72
2022-12-24T09:22:46.912Z,53.72
2022-12-24T09:23:46.903Z,54.42
2022-12-24T09:24:46.897Z,55.59
2022-12-24T09:25:46.871Z,55.05
2022-12-24T09:26:50.033Z,54.60
2022-12-24T09:27:48.250Z,54.81
2022-12-24T09:28:46.873Z,54.85
2022-12-24T09:29:46.865Z,55.86
2022-12-24T09:30:46.857Z,54.42
2022-12-24T09:31:46.965Z,54.42
2022-12-24T09:32:46.866Z,55.99
2022-12-24T09:33:46.844Z,60.30
2022-12-24T09:34:46.853Z,60.89
2022-12-24T09:35:46.814Z,54.66
2022-12-24T09:36:47.190Z,55.90
2022-12-24T09:37:46.839Z,52.59
2022-12-24T09:38:46.835Z,52.72
2022-12-24T09:39:46.772Z,54.18
2022-12-24T09:40:47.675Z,54.01
2022-12-24T09:41:46.797Z,54.72
2022-12-24T09:42:46.746Z,57.86
2022-12-24T09:43:46.762Z,54.19
2022-12-24T09:44:46.764Z,52.75
2022-12-24T09:45:46.792Z,54.31
2022-12-24T09:46:46.739Z,52.80
2022-12-24T09:47:46.719Z,53.28
2022-12-24T09:48:46.731Z,54.45
2022-12-24T09:49:46.727Z,54.78
2022-12-24T09:50:46.702Z,54.44
2022-12-24T09:51:46.738Z,55.90
2022-12-24T09:52:46.814Z,57.48
2022-12-24T09:53:46.734Z,58.16
2022-12-24T09:54:49.885Z,55.15
2022-12-24T09:55:46.663Z,55.03
2022-12-24T09:56:46.674Z,56.02
2022-12-24T09:57:46.750Z,56.12
2022-12-24T09:58:46.665Z,55.76
2022-12-24T09:59:46.867Z,55.27
2022-12-24T10:00:50.015Z,58.06
2022-12-24T10:01:46.755Z,58.95
2022-12-24T10:02:47.247Z,60.19
2022-12-24T10:03:46.674Z,54.01
2022-12-24T10:04:47.886Z,56.57
2022-12-24T10:05:46.596Z,56.85
2022-12-24T10:06:46.657Z,55.52
2022-12-24T10:07:46.558Z,54.77
2022-12-24T10:08:46.570Z,54.40
2022-12-24T10:09:46.562Z,54.68
2022-12-24T10:10:46.716Z,54.66
2022-12-24T10:11:46.668Z,54.64
2022-12-24T10:12:49.682Z,54.43
2022-12-24T10:13:46.533Z,55.16
2022-12-24T10:14:46.546Z,54.53
2022-12-24T10:15:46.502Z,54.58
2022-12-24T10:16:46.561Z,55.91
2022-12-24T10:17:46.557Z,57.14
2022-12-24T10:18:49.534Z,54.90
2022-12-24T10:19:46.494Z,54.60
2022-12-24T10:20:46.564Z,54.92
2022-12-24T10:21:46.471Z,53.88
2022-12-24T10:22:46.530Z,56.19
2022-12-24T10:23:46.688Z,54.07
2022-12-24T10:24:50.263Z,54.76
2022-12-24T10:25:46.472Z,54.76
2022-12-24T10:26:46.497Z,55.95
2022-12-24T10:27:46.424Z,57.47
2022-12-24T10:28:46.564Z,56.19
2022-12-24T10:29:46.402Z,55.06
2022-12-24T10:30:46.443Z,55.75
2022-12-24T10:31:46.406Z,52.67
2022-12-24T10:32:46.386Z,53.34
2022-12-24T10:33:46.522Z,55.00
2022-12-24T10:34:47.187Z,56.29
2022-12-24T10:35:46.356Z,53.84
2022-12-24T10:36:46.362Z,53.83
2022-12-24T10:37:46.358Z,52.44
2022-12-24T10:38:46.368Z,52.48
2022-12-24T10:39:46.351Z,53.34
2022-12-24T10:40:46.350Z,53.08
2022-12-24T10:41:46.320Z,55.59
2022-12-24T10:42:51.019Z,51.66
2022-12-24T10:43:47.356Z,53.25
2022-12-24T10:44:46.321Z,54.01
2022-12-24T10:45:46.359Z,52.75
2022-12-24T10:46:46.412Z,53.71
2022-12-24T10:47:46.327Z,52.79
2022-12-24T10:48:50.845Z,52.31
2022-12-24T10:49:46.292Z,52.69
2022-12-24T10:50:46.285Z,54.10
2022-12-24T10:51:46.264Z,54.24
2022-12-24T10:52:46.271Z,56.09
2022-12-24T10:53:46.315Z,52.93
2022-12-24T10:54:46.252Z,52.58
2022-12-24T10:55:46.306Z,52.49
2022-12-24T10:56:46.297Z,52.42
2022-12-24T10:57:46.256Z,52.20
2022-12-24T10:58:46.226Z,52.24
2022-12-24T10:59:46.257Z,52.65
2022-12-24T11:00:46.196Z,53.42
2022-12-24T11:01:46.437Z,53.75
2022-12-24T11:02:46.361Z,53.61
2022-12-24T11:03:46.206Z,52.53
2022-12-24T11:04:46.166Z,53.34
2022-12-24T11:05:46.172Z,53.68
2022-12-24T11:06:49.164Z,53.36
2022-12-24T11:07:46.182Z,53.03
2022-12-24T11:08:46.216Z,52.20
2022-12-24T11:09:46.147Z,52.54
2022-12-24T11:10:46.143Z,53.57
2022-12-24T11:11:46.699Z,55.07
2022-12-24T11:13:00.195Z,53.60
2022-12-24T11:13:47.122Z,54.04
2022-12-24T11:14:46.143Z,55.83
2022-12-24T11:15:46.147Z,53.40
2022-12-24T11:16:46.124Z,53.58
2022-12-24T11:17:46.095Z,53.33
2022-12-24T11:18:50.909Z,56.07
2022-12-24T11:19:47.164Z,54.55
2022-12-24T11:20:46.042Z,55.90
2022-12-24T11:21:46.065Z,55.71
2022-12-24T11:22:46.051Z,52.37
2022-12-24T11:23:46.042Z,55.64
2022-12-24T11:24:50.136Z,52.28
2022-12-24T11:25:46.091Z,52.40
2022-12-24T11:26:46.018Z,51.92
2022-12-24T11:27:46.730Z,51.91
2022-12-24T11:28:46.014Z,61.81
2022-12-24T11:29:46.005Z,56.40
2022-12-24T11:30:46.073Z,56.14
2022-12-24T11:31:46.045Z,55.63
2022-12-24T11:32:46.029Z,54.48
2022-12-24T11:33:46.974Z,53.72
2022-12-24T11:34:46.077Z,52.33
2022-12-24T11:35:45.992Z,53.06
2022-12-24T11:36:45.970Z,53.86
2022-12-24T11:37:45.946Z,54.54
2022-12-24T11:38:46.702Z,50.95
2022-12-24T11:39:45.943Z,52.07
2022-12-24T11:40:45.921Z,49.92
2022-12-24T11:41:46.000Z,49.91
2022-12-24T11:42:45.938Z,56.81
2022-12-24T11:43:45.888Z,57.33
2022-12-24T11:44:45.983Z,50.40
2022-12-24T11:45:45.896Z,50.53
2022-12-24T11:46:45.996Z,49.85
2022-12-24T11:47:45.915Z,52.31
2022-12-24T11:48:45.879Z,51.02
2022-12-24T11:49:45.882Z,51.33
2022-12-24T11:50:45.913Z,52.47
2022-12-24T11:51:45.852Z,52.46
2022-12-24T11:52:45.866Z,52.70
2022-12-24T11:53:45.835Z,51.63
2022-12-24T11:54:45.862Z,50.29
2022-12-24T11:55:45.834Z,50.61
2022-12-24T11:56:45.806Z,50.11
2022-12-24T11:57:45.795Z,49.71
2022-12-24T11:58:45.800Z,51.19
2022-12-24T11:59:45.811Z,52.57
2022-12-24T12:00:45.819Z,51.74
2022-12-24T12:01:45.859Z,50.95
2022-12-24T12:02:45.913Z,53.04
2022-12-24T12:03:45.831Z,52.89
2022-12-24T12:04:45.790Z,51.32
2022-12-24T12:05:45.740Z,53.49
2022-12-24T12:06:45.851Z,52.82
2022-12-24T12:07:45.727Z,50.82
2022-12-24T12:08:45.777Z,51.89
2022-12-24T12:09:45.742Z,54.70
2022-12-24T12:10:45.712Z,50.11
2022-12-24T12:11:45.725Z,49.83
2022-12-24T12:12:45.789Z,48.49
2022-12-24T12:13:45.721Z,48.55
2022-12-24T12:14:45.772Z,50.08
2022-12-24T12:15:45.789Z,51.50
2022-12-24T12:16:45.740Z,51.11
2022-12-24T12:17:45.716Z,49.58
2022-12-24T12:18:45.705Z,54.38
2022-12-24T12:19:45.698Z,53.17
2022-12-24T12:20:45.703Z,50.60
2022-12-24T12:21:45.710Z,49.57
2022-12-24T12:22:45.733Z,48.58
2022-12-24T12:23:45.675Z,50.61
2022-12-24T12:24:45.632Z,50.08
2022-12-24T12:25:45.604Z,53.75
2022-12-24T12:26:45.612Z,51.65
2022-12-24T12:27:45.889Z,50.24
2022-12-24T12:28:45.596Z,50.04
2022-12-24T12:29:45.609Z,48.53
2022-12-24T12:30:45.597Z,53.15
2022-12-24T12:31:45.640Z,50.03
2022-12-24T12:32:45.640Z,48.84
2022-12-24T12:33:45.581Z,47.88
2022-12-24T12:34:45.596Z,50.04
2022-12-24T12:35:45.545Z,48.27
2022-12-24T12:36:45.530Z,52.03
2022-12-24T12:37:45.581Z,62.27
2022-12-24T12:38:45.542Z,50.63
2022-12-24T12:39:45.527Z,49.90
2022-12-24T12:40:45.627Z,49.64
2022-12-24T12:41:45.521Z,49.31
2022-12-24T12:42:45.515Z,50.03
2022-12-24T12:43:45.648Z,50.14
2022-12-24T12:44:45.485Z,49.15
2022-12-24T12:45:45.467Z,47.78
2022-12-24T12:46:45.675Z,48.43
2022-12-24T12:47:45.505Z,47.97
2022-12-24T12:48:46.240Z,47.91
2022-12-24T12:49:45.461Z,48.57
2022-12-24T12:50:45.467Z,49.40
2022-12-24T12:51:45.419Z,49.90
2022-12-24T12:52:45.528Z,54.98